Time;durP1;ratioP1;P1;durP2;ratioP2;P2;SDS_P1;SDS_P2;PMS_P1;PMS_P2;Temp;Humidity;BMP_temperature;BMP_pressure;BME280_temperature;BME280_humidity;BME280_pressure;Samples;Min_cycle;Max_cycle;Signal;HPM_P1;HPM_P2
2022/06/18 00:00:50;;;;;;;6.27;3.80;;;;;;;;;;4983420;28;20043;-61
2022/06/18 00:03:17;;;;;;;7.50;3.93;;;;;;;;;;4988204;28;20042;-61
2022/06/18 00:05:44;;;;;;;5.87;4.00;;;;;;;;;;4977982;28;20072;-61
2022/06/18 00:08:12;;;;;;;7.57;4.17;;;;;;;;;;4982927;28;20089;-60
2022/06/18 00:10:38;;;;;;;10.03;4.10;;;;;;;;;;4980217;28;20122;-61
2022/06/18 00:16:02;;;;;;;6.00;4.60;;;;;;;;;;4986451;28;20051;-61
2022/06/18 00:18:28;;;;;;;8.27;4.63;;;;;;;;;;4982658;28;20542;-61
2022/06/18 00:20:54;;;;;;;11.43;4.80;;;;;;;;;;4985204;28;20696;-60
2022/06/18 00:23:21;;;;;;;6.57;4.03;;;;;;;;;;4985381;28;20084;-60
2022/06/18 00:25:48;;;;;;;7.37;4.97;;;;;;;;;;4982647;28;20050;-60
2022/06/18 00:28:19;;;;;;;6.63;4.83;;;;;;;;;;4984350;28;20038;-61
2022/06/18 00:30:45;;;;;;;9.67;5.03;;;;;;;;;;4978083;28;20428;-61
2022/06/18 00:33:11;;;;;;;7.17;5.23;;;;;;;;;;4985162;28;20046;-61
2022/06/18 00:35:37;;;;;;;11.57;5.43;;;;;;;;;;4983949;28;20042;-61
2022/06/18 00:38:04;;;;;;;6.97;4.90;;;;;;;;;;4984446;28;20074;-60
2022/06/18 00:40:38;;;;;;;7.30;4.80;;;;;;;;;;4985039;28;20120;-60
2022/06/18 00:43:07;;;;;;;6.73;5.13;;;;;;;;;;4985124;28;20073;-60
2022/06/18 00:45:33;;;;;;;9.23;4.83;;;;;;;;;;4983944;28;20050;-60
2022/06/18 00:48:17;;;;;;;8.43;4.73;;;;;;;;;;4982529;28;20051;-61
2022/06/18 00:50:52;;;;;;;8.10;4.30;;;;;;;;;;4977705;28;20491;-60
2022/06/18 00:53:18;;;;;;;8.57;5.37;;;;;;;;;;4987193;28;20058;-60
2022/06/18 00:55:54;;;;;;;11.70;5.77;;;;;;;;;;4986574;28;20129;-60
2022/06/18 00:58:32;;;;;;;8.47;5.23;;;;;;;;;;4988740;28;20046;-60
2022/06/18 01:00:59;;;;;;;6.50;4.93;;;;;;;;;;4984715;28;20493;-60
2022/06/18 01:03:25;;;;;;;11.20;6.40;;;;;;;;;;4988720;28;20053;-60
2022/06/18 01:05:52;;;;;;;10.90;6.40;;;;;;;;;;4985971;28;20078;-60
2022/06/18 01:08:20;;;;;;;10.50;6.20;;;;;;;;;;4988618;28;20404;-60
2022/06/18 01:10:47;;;;;;;12.00;6.53;;;;;;;;;;4988987;28;20089;-60
2022/06/18 01:13:15;;;;;;;18.63;6.63;;;;;;;;;;4988921;28;20124;-60
2022/06/18 01:15:42;;;;;;;7.20;5.97;;;;;;;;;;4989024;28;20128;-60
2022/06/18 01:18:08;;;;;;;9.33;5.97;;;;;;;;;;4988370;28;20118;-60
2022/06/18 01:20:40;;;;;;;8.53;5.73;;;;;;;;;;4988897;28;20114;-60
2022/06/18 01:23:09;;;;;;;10.37;6.03;;;;;;;;;;4985394;28;20038;-61
2022/06/18 01:25:36;;;;;;;9.17;6.67;;;;;;;;;;4988239;28;20381;-60
2022/06/18 01:28:02;;;;;;;10.87;5.77;;;;;;;;;;4988821;28;20046;-61
2022/06/18 01:30:34;;;;;;;12.33;6.47;;;;;;;;;;4988279;28;20100;-60
2022/06/18 01:33:01;;;;;;;10.03;5.90;;;;;;;;;;4988494;28;20057;-61
2022/06/18 01:35:27;;;;;;;7.60;6.00;;;;;;;;;;4985580;28;20567;-60
2022/06/18 01:37:53;;;;;;;13.53;6.67;;;;;;;;;;4988797;28;20038;-60
2022/06/18 01:40:33;;;;;;;13.03;7.47;;;;;;;;;;4988056;28;20496;-61
2022/06/18 01:43:01;;;;;;;10.97;7.17;;;;;;;;;;4986270;28;20053;-61
2022/06/18 01:45:30;;;;;;;8.97;7.67;;;;;;;;;;4987574;28;21882;-61
2022/06/18 01:47:59;;;;;;;8.57;6.63;;;;;;;;;;4986372;28;20165;-60
2022/06/18 01:50:28;;;;;;;10.77;7.33;;;;;;;;;;4988369;28;20122;-60
2022/06/18 01:52:57;;;;;;;11.57;7.00;;;;;;;;;;4987993;28;20042;-60
2022/06/18 01:55:26;;;;;;;12.97;7.70;;;;;;;;;;4981964;28;20081;-61
2022/06/18 01:57:55;;;;;;;9.70;7.57;;;;;;;;;;4985833;28;20133;-61
2022/06/18 02:00:23;;;;;;;8.37;7.33;;;;;;;;;;4988145;28;20129;-61
2022/06/18 02:02:49;;;;;;;9.43;7.40;;;;;;;;;;4987870;28;20501;-61
2022/06/18 02:05:16;;;;;;;9.60;7.17;;;;;;;;;;4987692;28;20042;-60
2022/06/18 02:07:43;;;;;;;11.37;7.43;;;;;;;;;;4985362;28;20042;-60
2022/06/18 02:10:13;;;;;;;9.93;6.80;;;;;;;;;;4987434;28;20042;-60
2022/06/18 02:12:39;;;;;;;9.53;7.20;;;;;;;;;;4987806;28;20420;-60
2022/06/18 02:15:07;;;;;;;12.37;7.83;;;;;;;;;;4987425;28;20058;-61
2022/06/18 02:17:33;;;;;;;13.10;7.23;;;;;;;;;;4987904;28;20049;-61
2022/06/18 02:20:02;;;;;;;13.73;7.40;;;;;;;;;;4987449;28;20071;-60
2022/06/18 02:22:33;;;;;;;8.47;6.63;;;;;;;;;;4984749;28;20046;-60
2022/06/18 02:24:59;;;;;;;12.47;7.20;;;;;;;;;;4987088;28;20054;-60
2022/06/18 02:27:25;;;;;;;12.00;8.10;;;;;;;;;;4988162;28;20057;-61
2022/06/18 02:29:51;;;;;;;10.23;7.20;;;;;;;;;;4987936;28;20089;-60
2022/06/18 02:32:38;;;;;;;12.00;7.53;;;;;;;;;;4987973;28;20042;-61
2022/06/18 02:35:14;;;;;;;12.20;7.63;;;;;;;;;;4987185;28;20054;-60
2022/06/18 02:37:40;;;;;;;13.93;7.67;;;;;;;;;;4984820;28;20050;-60
2022/06/18 02:40:16;;;;;;;10.17;7.93;;;;;;;;;;4987382;28;20046;-60
2022/06/18 02:42:42;;;;;;;13.03;8.40;;;;;;;;;;4991836;28;20038;-60
2022/06/18 02:45:08;;;;;;;13.83;7.57;;;;;;;;;;4991635;28;20161;-60
2022/06/18 02:47:35;;;;;;;12.80;7.97;;;;;;;;;;4991757;28;20567;-60
2022/06/18 02:50:04;;;;;;;11.30;7.97;;;;;;;;;;4988714;28;20489;-60
2022/06/18 02:52:33;;;;;;;12.33;7.43;;;;;;;;;;4988232;28;20072;-61
2022/06/18 02:55:00;;;;;;;10.77;7.60;;;;;;;;;;4991048;28;20533;-60
2022/06/18 02:57:28;;;;;;;11.90;7.53;;;;;;;;;;4991222;28;20038;-61
2022/06/18 02:59:54;;;;;;;9.50;7.50;;;;;;;;;;4991490;28;20100;-61
2022/06/18 03:02:20;;;;;;;18.27;8.60;;;;;;;;;;4991197;28;20081;-60
2022/06/18 03:04:46;;;;;;;10.27;8.10;;;;;;;;;;4990848;28;20046;-60
2022/06/18 03:07:12;;;;;;;11.57;7.77;;;;;;;;;;4991405;28;20047;-60
2022/06/18 03:12:06;;;;;;;9.60;7.83;;;;;;;;;;4991415;28;20057;-60
2022/06/18 03:12:24;;;;;;;11.80;8.30;;;;;;;;;;4989605;28;20046;-60
2022/06/18 03:14:50;;;;;;;10.17;8.53;;;;;;;;;;4974678;28;20042;-60
2022/06/18 03:17:16;;;;;;;14.57;9.33;;;;;;;;;;4987077;28;20038;-60
2022/06/18 03:19:49;;;;;;;14.50;8.10;;;;;;;;;;4984531;28;20046;-60
2022/06/18 03:22:16;;;;;;;;;;;;;;;;;;4983061;28;20038;-60
2022/06/18 03:24:42;;;;;;;12.73;9.20;;;;;;;;;;4986462;28;19965;-59
2022/06/18 03:27:12;;;;;;;11.73;8.53;;;;;;;;;;4992233;28;20057;-59
2022/06/18 03:29:39;;;;;;;11.97;8.73;;;;;;;;;;4992046;28;20121;-60
2022/06/18 03:32:05;;;;;;;15.00;9.90;;;;;;;;;;4991750;28;20054;-60
2022/06/18 03:34:31;;;;;;;12.70;8.67;;;;;;;;;;4980961;28;20071;-60
2022/06/18 03:36:57;;;;;;;13.50;9.27;;;;;;;;;;4972470;28;20058;-59
2022/06/18 03:39:24;;;;;;;12.23;9.30;;;;;;;;;;4980677;28;20053;-60
2022/06/18 03:41:50;;;;;;;12.53;9.03;;;;;;;;;;4992346;28;20065;-60
2022/06/18 03:44:16;;;;;;;16.20;9.00;;;;;;;;;;4992067;28;20046;-59
2022/06/18 03:46:43;;;;;;;15.37;9.83;;;;;;;;;;4991838;28;20100;-60
2022/06/18 03:49:10;;;;;;;13.30;10.20;;;;;;;;;;4991852;28;20046;-59
2022/06/18 03:51:36;;;;;;;15.10;10.33;;;;;;;;;;4991551;28;20120;-59
2022/06/18 03:54:02;;;;;;;13.03;9.60;;;;;;;;;;4991897;28;20508;-60
2022/06/18 03:56:30;;;;;;;15.20;10.50;;;;;;;;;;4992156;28;20051;-59
2022/06/18 03:58:57;;;;;;;20.20;10.23;;;;;;;;;;4991854;28;20193;-60
2022/06/18 04:01:27;;;;;;;15.57;10.67;;;;;;;;;;4991551;28;20049;-60
2022/06/18 04:03:53;;;;;;;15.43;9.80;;;;;;;;;;4991897;28;20793;-60
2022/06/18 04:06:19;;;;;;;13.20;10.50;;;;;;;;;;4991869;28;20181;-60
2022/06/18 04:08:46;;;;;;;15.27;10.70;;;;;;;;;;4991432;28;20049;-60
2022/06/18 04:11:13;;;;;;;15.93;10.50;;;;;;;;;;4991578;28;20125;-60
2022/06/18 04:13:39;;;;;;;18.87;11.30;;;;;;;;;;4974333;28;20043;-60
2022/06/18 04:16:06;;;;;;;15.40;10.27;;;;;;;;;;4983741;28;21040;-60
2022/06/18 04:18:32;;;;;;;15.47;11.43;;;;;;;;;;4987865;28;20073;-60
2022/06/18 04:20:59;;;;;;;14.67;10.93;;;;;;;;;;4983128;28;20047;-60
2022/06/18 04:23:25;;;;;;;15.10;10.93;;;;;;;;;;4976087;28;20039;-60
2022/06/18 04:25:51;;;;;;;19.30;11.43;;;;;;;;;;4971859;28;20069;-60
2022/06/18 04:28:18;;;;;;;18.97;11.90;;;;;;;;;;4971853;28;20057;-60
2022/06/18 04:30:44;;;;;;;25.43;11.57;;;;;;;;;;4971863;28;20501;-61
2022/06/18 04:33:10;;;;;;;21.07;12.23;;;;;;;;;;4971528;28;20177;-60
2022/06/18 04:35:36;;;;;;;18.47;12.47;;;;;;;;;;4971967;28;20441;-60
2022/06/18 04:38:02;;;;;;;17.20;11.83;;;;;;;;;;4970258;28;20054;-60
2022/06/18 04:40:33;;;;;;;23.63;11.83;;;;;;;;;;4972128;28;20051;-60
2022/06/18 04:43:00;;;;;;;18.27;13.17;;;;;;;;;;4971461;28;20520;-60
2022/06/18 04:45:26;;;;;;;20.00;12.17;;;;;;;;;;4990131;28;20057;-60
2022/06/18 04:47:53;;;;;;;15.27;12.20;;;;;;;;;;4990865;28;20135;-60
2022/06/18 04:50:20;;;;;;;21.87;11.17;;;;;;;;;;4990714;28;20046;-61
2022/06/18 04:52:46;;;;;;;17.87;11.87;;;;;;;;;;4990593;28;20056;-60
2022/06/18 04:55:13;;;;;;;21.20;12.03;;;;;;;;;;4990621;28;20062;-61
2022/06/18 04:57:39;;;;;;;24.00;12.07;;;;;;;;;;4990668;28;20057;-60
2022/06/18 05:00:07;;;;;;;18.37;11.37;;;;;;;;;;4989895;28;20054;-61
2022/06/18 05:02:33;;;;;;;20.73;12.83;;;;;;;;;;4990726;28;20136;-60
2022/06/18 05:05:00;;;;;;;21.27;13.23;;;;;;;;;;4989878;28;20074;-61
2022/06/18 05:07:26;;;;;;;21.33;12.97;;;;;;;;;;4990049;28;20528;-60
2022/06/18 05:09:52;;;;;;;22.83;12.73;;;;;;;;;;4990884;28;20050;-61
2022/06/18 05:12:18;;;;;;;27.93;12.70;;;;;;;;;;4990212;28;20049;-61
2022/06/18 05:14:44;;;;;;;22.47;12.87;;;;;;;;;;4990309;28;20073;-60
2022/06/18 05:17:12;;;;;;;27.37;13.80;;;;;;;;;;4990492;28;20050;-61
2022/06/18 05:19:38;;;;;;;26.77;13.73;;;;;;;;;;4990202;28;20133;-61
2022/06/18 05:22:04;;;;;;;27.07;13.23;;;;;;;;;;4989815;28;20441;-63
2022/06/18 05:24:30;;;;;;;24.97;12.77;;;;;;;;;;4990647;28;20053;-60
2022/06/18 05:26:58;;;;;;;23.53;13.80;;;;;;;;;;4990050;28;20057;-61
2022/06/18 05:29:24;;;;;;;21.90;13.20;;;;;;;;;;4989295;28;20045;-60
2022/06/18 05:31:50;;;;;;;26.50;14.33;;;;;;;;;;4990387;28;20046;-61
2022/06/18 05:34:16;;;;;;;26.23;13.00;;;;;;;;;;4990124;28;20042;-60
2022/06/18 05:36:42;;;;;;;27.97;13.27;;;;;;;;;;4990068;28;20132;-61
2022/06/18 05:39:10;;;;;;;22.73;13.80;;;;;;;;;;4989641;28;20034;-61
2022/06/18 05:41:36;;;;;;;23.00;13.17;;;;;;;;;;4989499;28;20133;-61
2022/06/18 05:44:03;;;;;;;24.83;13.40;;;;;;;;;;4989751;28;20057;-61
2022/06/18 05:46:29;;;;;;;27.43;12.73;;;;;;;;;;4988854;28;20054;-61
2022/06/18 05:48:55;;;;;;;24.47;13.67;;;;;;;;;;4988427;28;20049;-61
2022/06/18 05:51:21;;;;;;;24.80;13.17;;;;;;;;;;4988881;28;20046;-61
2022/06/18 05:53:48;;;;;;;26.33;13.70;;;;;;;;;;4988488;28;20420;-60
2022/06/18 05:56:14;;;;;;;22.27;13.77;;;;;;;;;;4988129;28;20050;-60
2022/06/18 05:58:40;;;;;;;21.43;12.77;;;;;;;;;;4988622;28;20117;-61
2022/06/18 06:01:06;;;;;;;23.00;12.77;;;;;;;;;;4988324;28;20042;-61
2022/06/18 06:03:32;;;;;;;25.90;13.27;;;;;;;;;;4988325;28;20151;-62
2022/06/18 06:05:59;;;;;;;28.27;13.93;;;;;;;;;;4988124;28;20049;-61
2022/06/18 06:08:25;;;;;;;21.30;12.57;;;;;;;;;;4986774;28;20536;-61
2022/06/18 06:13:36;;;;;;;20.13;13.63;;;;;;;;;;4985944;28;20627;-61
2022/06/18 06:16:02;;;;;;;28.73;14.07;;;;;;;;;;4987090;28;20050;-61
2022/06/18 06:18:29;;;;;;;29.00;14.73;;;;;;;;;;4988047;28;20488;-60
2022/06/18 06:20:56;;;;;;;31.50;14.77;;;;;;;;;;4988251;28;20043;-60
2022/06/18 06:23:22;;;;;;;28.93;14.40;;;;;;;;;;4987907;28;20050;-60
2022/06/18 06:25:49;;;;;;;26.13;14.67;;;;;;;;;;4987956;28;20053;-60
2022/06/18 06:28:23;;;;;;;27.70;15.17;;;;;;;;;;4986147;28;20104;-60
2022/06/18 06:30:50;;;;;;;18.90;11.10;;;;;;;;;;4970778;28;20492;-60
2022/06/18 06:33:16;;;;;;;20.97;11.87;;;;;;;;;;4981770;28;20456;-60
2022/06/18 06:35:43;;;;;;;26.03;11.93;;;;;;;;;;4981637;28;20050;-60
2022/06/18 06:38:09;;;;;;;19.93;10.67;;;;;;;;;;4982015;28;20118;-60
2022/06/18 06:40:35;;;;;;;20.57;11.20;;;;;;;;;;4977826;28;20047;-60
2022/06/18 06:43:02;;;;;;;23.47;11.27;;;;;;;;;;4985341;28;20452;-60
2022/06/18 06:45:29;;;;;;;19.23;9.87;;;;;;;;;;4982644;28;20042;-60
2022/06/18 06:47:57;;;;;;;22.23;11.20;;;;;;;;;;4983002;28;20043;-60
2022/06/18 06:50:24;;;;;;;23.23;11.57;;;;;;;;;;4987014;28;20038;-60
2022/06/18 06:52:50;;;;;;;20.33;10.63;;;;;;;;;;4988987;28;20058;-60
2022/06/18 06:58:09;;;;;;;17.20;9.90;;;;;;;;;;4989020;28;20054;-60
2022/06/18 07:00:37;;;;;;;22.00;10.23;;;;;;;;;;4988711;28;20133;-60
2022/06/18 07:03:03;;;;;;;17.10;9.77;;;;;;;;;;4988953;28;20122;-60
2022/06/18 07:05:30;;;;;;;21.03;9.43;;;;;;;;;;4985103;28;20050;-60
2022/06/18 07:07:56;;;;;;;19.00;10.40;;;;;;;;;;4988759;28;20042;-60
2022/06/18 07:10:22;;;;;;;20.70;9.70;;;;;;;;;;4989169;28;20042;-61
2022/06/18 07:12:48;;;;;;;23.37;8.97;;;;;;;;;;4988800;28;20050;-60
2022/06/18 07:15:14;;;;;;;21.53;9.67;;;;;;;;;;4988847;28;20042;-60
2022/06/18 07:17:43;;;;;;;16.83;8.10;;;;;;;;;;4988491;28;20050;-60
2022/06/18 07:20:13;;;;;;;14.83;7.27;;;;;;;;;;4989144;28;20113;-60
2022/06/18 07:22:39;;;;;;;14.90;8.03;;;;;;;;;;4988900;28;20157;-60
2022/06/18 07:25:06;;;;;;;16.37;8.50;;;;;;;;;;4988918;28;20137;-60
2022/06/18 07:27:33;;;;;;;17.67;9.00;;;;;;;;;;4990502;28;20579;-60
2022/06/18 07:29:59;;;;;;;15.20;7.93;;;;;;;;;;4992373;28;20088;-60
2022/06/18 07:32:25;;;;;;;18.57;8.83;;;;;;;;;;4992708;28;20042;-60
2022/06/18 07:34:53;;;;;;;14.43;6.70;;;;;;;;;;4992552;28;20077;-60
2022/06/18 07:37:20;;;;;;;18.30;7.27;;;;;;;;;;4991912;28;20070;-60
2022/06/18 07:39:46;;;;;;;9.20;5.10;;;;;;;;;;4992074;28;20046;-60
2022/06/18 07:42:13;;;;;;;16.27;5.97;;;;;;;;;;4991957;28;20050;-60
2022/06/18 07:44:40;;;;;;;14.57;5.43;;;;;;;;;;4991944;28;20086;-60
2022/06/18 07:47:06;;;;;;;10.13;4.77;;;;;;;;;;4991547;28;20129;-60
2022/06/18 07:49:32;;;;;;;10.90;4.57;;;;;;;;;;4992481;28;20054;-59
2022/06/18 07:51:58;;;;;;;11.83;5.07;;;;;;;;;;4991719;28;20047;-60
2022/06/18 07:54:24;;;;;;;9.82;4.57;;;;;;;;;;4987069;28;20059;-60
2022/06/18 07:56:51;;;;;;;8.07;3.75;;;;;;;;;;4991936;28;20477;-60
2022/06/18 07:59:19;;;;;;;12.38;3.85;;;;;;;;;;4991465;28;20141;-60
2022/06/18 08:01:45;;;;;;;12.10;4.22;;;;;;;;;;4984073;28;20054;-60
2022/06/18 08:04:11;;;;;;;10.82;4.38;;;;;;;;;;5002626;28;20097;-59
2022/06/18 08:06:37;;;;;;;7.47;4.03;;;;;;;;;;4988191;28;20463;-60
2022/06/18 08:09:03;;;;;;;12.48;4.85;;;;;;;;;;4986638;28;20404;-60
2022/06/18 08:11:30;;;;;;;11.27;3.75;;;;;;;;;;4988274;28;20085;-59
2022/06/18 08:13:57;;;;;;;10.68;4.10;;;;;;;;;;4991807;28;20043;-60
2022/06/18 08:16:24;;;;;;;10.40;3.78;;;;;;;;;;4984813;28;20046;-60
2022/06/18 08:18:50;;;;;;;7.63;4.05;;;;;;;;;;4990820;28;20142;-60
2022/06/18 08:21:16;;;;;;;11.30;3.33;;;;;;;;;;4983266;28;20131;-60
2022/06/18 08:23:42;;;;;;;15.45;4.07;;;;;;;;;;4990774;28;20042;-59
2022/06/18 08:26:08;;;;;;;9.63;3.17;;;;;;;;;;4991391;28;20049;-60
2022/06/18 08:28:35;;;;;;;7.07;3.30;;;;;;;;;;4990964;28;20046;-60
2022/06/18 08:31:02;;;;;;;8.73;3.10;;;;;;;;;;4991300;28;20101;-60
2022/06/18 08:33:29;;;;;;;9.30;4.00;;;;;;;;;;4991403;28;20042;-60
2022/06/18 08:35:57;;;;;;;8.73;3.95;;;;;;;;;;4990817;28;20046;-60
2022/06/18 08:38:23;;;;;;;10.85;3.55;;;;;;;;;;4990248;28;20061;-59
2022/06/18 08:40:52;;;;;;;10.85;3.75;;;;;;;;;;4990289;28;20507;-59
2022/06/18 08:43:21;;;;;;;9.45;3.55;;;;;;;;;;4990338;28;20448;-60
2022/06/18 08:45:53;;;;;;;8.23;3.15;;;;;;;;;;4990560;28;20057;-60
2022/06/18 08:48:19;;;;;;;14.43;3.13;;;;;;;;;;4990715;28;20043;-60
2022/06/18 08:51:12;;;;;;;10.38;3.42;;;;;;;;;;4989662;28;20508;-60
2022/06/18 08:54:07;;;;;;;10.23;2.78;;;;;;;;;;4985591;28;20401;-60
2022/06/18 08:56:43;;;;;;;8.88;3.53;;;;;;;;;;4933639;28;20059;-60
2022/06/18 08:59:09;;;;;;;9.27;3.42;;;;;;;;;;4971250;28;20047;-59
2022/06/18 09:01:40;;;;;;;9.02;3.28;;;;;;;;;;4976438;28;20551;-60
2022/06/18 09:04:15;;;;;;;8.75;3.28;;;;;;;;;;4988949;28;20475;-60
2022/06/18 09:06:51;;;;;;;5.75;3.25;;;;;;;;;;4990474;28;20100;-61
2022/06/18 09:09:27;;;;;;;6.95;2.88;;;;;;;;;;4990009;28;20054;-60
2022/06/18 09:12:01;;;;;;;10.65;3.72;;;;;;;;;;4990562;28;20046;-60
2022/06/18 09:14:34;;;;;;;6.97;2.80;;;;;;;;;;4990092;28;20049;-60
2022/06/18 09:17:20;;;;;;;7.05;2.70;;;;;;;;;;4990275;28;20086;-61
2022/06/18 09:19:52;;;;;;;7.20;2.75;;;;;;;;;;4983174;28;20058;-60
2022/06/18 09:22:19;;;;;;;6.35;3.28;;;;;;;;;;4989648;28;20046;-60
2022/06/18 09:24:47;;;;;;;10.43;3.78;;;;;;;;;;4989945;28;20121;-61
2022/06/18 09:27:24;;;;;;;8.18;3.63;;;;;;;;;;4989599;28;20897;-61
2022/06/18 09:29:57;;;;;;;10.05;3.28;;;;;;;;;;4980227;28;20046;-61
2022/06/18 09:32:23;;;;;;;6.75;2.67;;;;;;;;;;4990238;28;20088;-61
2022/06/18 09:34:53;;;;;;;5.47;2.15;;;;;;;;;;4989543;28;20073;-61
2022/06/18 09:37:24;;;;;;;7.22;1.92;;;;;;;;;;4990338;28;20514;-61
2022/06/18 09:39:53;;;;;;;6.63;2.03;;;;;;;;;;4989032;28;20047;-61
2022/06/18 09:42:21;;;;;;;7.22;2.85;;;;;;;;;;4989291;28;20043;-61
2022/06/18 09:44:53;;;;;;;9.70;3.10;;;;;;;;;;4988739;28;20476;-62
2022/06/18 09:47:22;;;;;;;7.35;3.17;;;;;;;;;;4989872;28;20042;-61
2022/06/18 09:49:48;;;;;;;7.35;2.38;;;;;;;;;;4989535;28;20061;-61
2022/06/18 09:52:17;;;;;;;6.90;2.10;;;;;;;;;;4989434;28;20058;-61
2022/06/18 09:54:47;;;;;;;6.35;2.28;;;;;;;;;;4998250;28;20057;-61
2022/06/18 09:57:14;;;;;;;8.77;2.42;;;;;;;;;;4998786;28;20054;-61
2022/06/18 09:59:43;;;;;;;7.13;2.75;;;;;;;;;;4988180;28;20751;-61
2022/06/18 10:02:21;;;;;;;5.10;2.10;;;;;;;;;;4987026;28;20046;-62
2022/06/18 10:07:33;;;;;;;6.13;2.70;;;;;;;;;;4971377;28;20047;-61
2022/06/18 10:10:05;;;;;;;6.85;2.70;;;;;;;;;;4994248;28;20100;-61
2022/06/18 10:12:32;;;;;;;8.43;2.90;;;;;;;;;;4989856;28;20038;-61
2022/06/18 10:15:00;;;;;;;6.30;2.33;;;;;;;;;;4989040;28;20042;-62
2022/06/18 10:17:28;;;;;;;5.18;2.30;;;;;;;;;;4989183;28;20042;-61
2022/06/18 10:20:00;;;;;;;7.45;2.00;;;;;;;;;;4989511;28;20121;-61
2022/06/18 10:22:29;;;;;;;6.35;1.73;;;;;;;;;;4986536;28;20084;-61
2022/06/18 10:25:01;;;;;;;5.53;1.95;;;;;;;;;;4989990;28;20053;-61
2022/06/18 10:27:37;;;;;;;3.85;1.90;;;;;;;;;;4990508;28;20051;-61
2022/06/18 10:30:16;;;;;;;9.15;1.83;;;;;;;;;;4993237;28;20161;-61
2022/06/18 10:32:51;;;;;;;7.63;2.08;;;;;;;;;;4989431;28;20408;-61
2022/06/18 10:35:33;;;;;;;5.20;1.70;;;;;;;;;;4989124;28;20077;-61
2022/06/18 10:38:09;;;;;;;4.60;1.88;;;;;;;;;;4987659;28;20555;-61
2022/06/18 10:40:55;;;;;;;9.50;1.77;;;;;;;;;;4986322;28;20121;-61
2022/06/18 10:43:35;;;;;;;5.72;1.70;;;;;;;;;;4989430;28;20044;-61
2022/06/18 10:46:03;;;;;;;3.88;1.27;;;;;;;;;;4988077;28;20440;-61
2022/06/18 10:48:30;;;;;;;3.95;1.30;;;;;;;;;;4988949;28;20156;-62
2022/06/18 10:50:58;;;;;;;6.13;2.10;;;;;;;;;;4988905;28;20042;-62
2022/06/18 10:53:25;;;;;;;3.60;1.80;;;;;;;;;;4989147;28;20145;-61
2022/06/18 10:56:01;;;;;;;7.53;1.80;;;;;;;;;;4982166;28;20404;-62
2022/06/18 10:58:28;;;;;;;5.53;1.60;;;;;;;;;;4968737;28;20129;-61
2022/06/18 11:00:56;;;;;;;4.07;1.67;;;;;;;;;;4977766;28;20403;-61
2022/06/18 11:03:25;;;;;;;4.30;1.60;;;;;;;;;;4985134;28;20049;-61
2022/06/18 11:05:51;;;;;;;5.68;1.90;;;;;;;;;;4973969;28;20050;-61
2022/06/18 11:08:25;;;;;;;6.30;1.83;;;;;;;;;;4982603;28;20169;-62
2022/06/18 11:10:51;;;;;;;8.45;1.83;;;;;;;;;;4986566;28;20415;-61
2022/06/18 11:13:37;;;;;;;4.78;1.77;;;;;;;;;;4980866;28;20046;-61
2022/06/18 11:16:12;;;;;;;8.43;2.03;;;;;;;;;;4982007;28;20701;-62
2022/06/18 11:18:47;;;;;;;4.57;1.55;;;;;;;;;;4976032;28;20090;-62
2022/06/18 11:21:20;;;;;;;4.60;1.70;;;;;;;;;;4973412;28;20131;-61
2022/06/18 11:23:51;;;;;;;5.10;2.17;;;;;;;;;;4979307;28;20451;-61
2022/06/18 11:26:22;;;;;;;5.40;1.98;;;;;;;;;;4976299;28;20054;-61
2022/06/18 11:28:49;;;;;;;6.47;1.73;;;;;;;;;;4977355;28;20109;-62
2022/06/18 11:31:23;;;;;;;6.85;1.63;;;;;;;;;;4984536;28;20089;-61
2022/06/18 11:33:58;;;;;;;4.43;1.42;;;;;;;;;;4979971;28;20042;-61
2022/06/18 11:36:33;;;;;;;4.93;1.55;;;;;;;;;;4980708;28;20065;-61
2022/06/18 11:39:00;;;;;;;8.73;1.80;;;;;;;;;;4977601;28;20046;-62
2022/06/18 11:41:35;;;;;;;5.95;1.80;;;;;;;;;;4980403;28;20098;-61
2022/06/18 11:44:09;;;;;;;7.78;2.05;;;;;;;;;;4974746;28;20038;-61
2022/06/18 11:46:43;;;;;;;6.10;1.90;;;;;;;;;;4980371;28;20038;-61
2022/06/18 11:49:16;;;;;;;6.50;2.50;;;;;;;;;;4982193;28;20043;-61
2022/06/18 11:51:46;;;;;;;2.72;1.50;;;;;;;;;;4972861;28;20149;-61
2022/06/18 11:54:31;;;;;;;9.63;2.22;;;;;;;;;;4953994;28;20055;-61
2022/06/18 11:57:16;;;;;;;5.25;2.17;;;;;;;;;;4967933;28;20061;-61
2022/06/18 11:59:52;;;;;;;5.57;2.15;;;;;;;;;;4972151;28;20039;-61
2022/06/18 12:02:33;;;;;;;3.90;1.30;;;;;;;;;;4972340;28;20055;-61
2022/06/18 12:05:04;;;;;;;6.97;1.65;;;;;;;;;;4968377;28;20073;-61
2022/06/18 12:07:51;;;;;;;5.53;2.08;;;;;;;;;;4975195;28;20105;-61
2022/06/18 12:10:18;;;;;;;4.60;1.65;;;;;;;;;;4969128;28;20050;-61
2022/06/18 12:12:52;;;;;;;4.85;1.80;;;;;;;;;;4963187;28;20122;-62
2022/06/18 12:15:18;;;;;;;5.07;1.70;;;;;;;;;;4965483;28;20039;-61
2022/06/18 12:17:45;;;;;;;5.63;1.50;;;;;;;;;;4967805;28;20090;-61
2022/06/18 12:20:26;;;;;;;5.78;1.75;;;;;;;;;;4970517;28;20089;-61
2022/06/18 12:22:58;;;;;;;5.15;1.40;;;;;;;;;;4951208;29;20110;-61
2022/06/18 12:25:36;;;;;;;6.70;1.58;;;;;;;;;;4951729;29;20051;-61
2022/06/18 12:28:22;;;;;;;4.70;1.33;;;;;;;;;;4952398;29;20138;-62
2022/06/18 12:30:56;;;;;;;2.17;1.10;;;;;;;;;;4965166;28;20130;-62
2022/06/18 12:33:22;;;;;;;3.53;1.40;;;;;;;;;;4971663;28;20043;-61
2022/06/18 12:36:08;;;;;;;6.82;1.48;;;;;;;;;;4971853;28;20354;-61
2022/06/18 12:38:39;;;;;;;3.35;1.60;;;;;;;;;;4971435;28;20539;-61
2022/06/18 12:41:23;;;;;;;5.90;1.63;;;;;;;;;;4971404;28;20051;-61
2022/06/18 12:43:55;;;;;;;3.80;1.45;;;;;;;;;;4971135;28;20051;-61
2022/06/18 12:46:42;;;;;;;6.25;1.90;;;;;;;;;;4970563;28;20394;-61
2022/06/18 12:49:12;;;;;;;4.53;1.70;;;;;;;;;;4971136;28;20050;-61
2022/06/18 12:51:57;;;;;;;5.55;1.38;;;;;;;;;;4971626;28;20047;-61
2022/06/18 12:54:23;;;;;;;5.00;1.80;;;;;;;;;;4970861;28;20125;-61
2022/06/18 12:56:55;;;;;;;5.95;1.85;;;;;;;;;;4970937;28;20693;-61
2022/06/18 12:59:28;;;;;;;5.97;1.40;;;;;;;;;;4970889;28;20042;-61
2022/06/18 13:02:01;;;;;;;3.75;1.80;;;;;;;;;;4971202;28;20050;-61
2022/06/18 13:04:37;;;;;;;6.78;1.60;;;;;;;;;;4971101;28;20093;-61
2022/06/18 13:07:10;;;;;;;4.38;1.70;;;;;;;;;;4970067;28;20054;-61
2022/06/18 13:09:38;;;;;;;5.97;1.58;;;;;;;;;;4970789;28;20043;-61
2022/06/18 13:12:12;;;;;;;4.43;1.55;;;;;;;;;;4970685;28;20046;-61
2022/06/18 13:14:38;;;;;;;5.47;1.70;;;;;;;;;;4970460;28;20046;-61
2022/06/18 13:17:11;;;;;;;4.63;1.58;;;;;;;;;;4970902;28;20837;-61
2022/06/18 13:19:37;;;;;;;6.55;1.85;;;;;;;;;;4970827;28;20118;-61
2022/06/18 13:22:06;;;;;;;5.07;1.70;;;;;;;;;;4970260;28;20461;-61
2022/06/18 13:30:11;;;;;;;5.72;2.13;;;;;;;;;;4970291;28;20051;-61
2022/06/18 13:32:40;;;;;;;4.60;1.30;;;;;;;;;;4951174;29;20045;-61
2022/06/18 13:35:13;;;;;;;5.10;1.42;;;;;;;;;;4969817;28;20054;-61
2022/06/18 13:38:04;;;;;;;5.63;1.60;;;;;;;;;;4970229;28;20057;-61
2022/06/18 13:40:36;;;;;;;4.40;1.40;;;;;;;;;;4970355;28;20063;-61
2022/06/18 13:43:21;;;;;;;3.00;1.13;;;;;;;;;;4969854;28;20527;-61
2022/06/18 13:46:00;;;;;;;1.80;0.93;;;;;;;;;;4969678;28;20066;-61
2022/06/18 13:48:29;;;;;;;6.05;1.00;;;;;;;;;;4970764;28;20102;-61
2022/06/18 13:50:58;;;;;;;4.15;0.93;;;;;;;;;;4969939;28;20141;-61
2022/06/18 13:53:29;;;;;;;2.28;0.85;;;;;;;;;;4970475;28;20468;-61
2022/06/18 13:55:56;;;;;;;4.57;1.03;;;;;;;;;;4970230;28;20553;-60
2022/06/18 13:58:26;;;;;;;4.30;0.90;;;;;;;;;;4969758;28;20050;-60
2022/06/18 14:01:03;;;;;;;2.78;1.00;;;;;;;;;;4970296;28;20051;-60
2022/06/18 14:03:29;;;;;;;1.77;1.02;;;;;;;;;;4969998;28;20101;-61
2022/06/18 14:05:58;;;;;;;2.22;1.00;;;;;;;;;;4969745;28;20420;-61
2022/06/18 14:08:30;;;;;;;5.10;1.52;;;;;;;;;;4969961;28;20505;-60
2022/06/18 14:11:01;;;;;;;4.78;2.03;;;;;;;;;;4969638;28;20051;-61
2022/06/18 14:13:27;;;;;;;3.97;1.20;;;;;;;;;;4969857;28;20053;-61
2022/06/18 14:15:57;;;;;;;1.77;0.80;;;;;;;;;;4969786;28;20058;-62
2022/06/18 14:18:23;;;;;;;4.50;1.00;;;;;;;;;;4969642;28;20481;-61
2022/06/18 14:21:15;;;;;;;2.88;1.20;;;;;;;;;;4969262;28;20038;-61
2022/06/18 14:23:42;;;;;;;2.90;0.80;;;;;;;;;;4967334;28;20063;-61
2022/06/18 14:26:15;;;;;;;6.20;1.38;;;;;;;;;;4969723;28;20109;-61
2022/06/18 14:28:43;;;;;;;4.10;1.25;;;;;;;;;;4969246;28;20062;-60
2022/06/18 14:31:34;;;;;;;5.35;1.10;;;;;;;;;;4968914;28;20097;-60
2022/06/18 14:34:11;;;;;;;4.03;1.00;;;;;;;;;;4969328;28;20524;-61
2022/06/18 14:36:42;;;;;;;4.43;0.88;;;;;;;;;;4969809;28;20042;-61
2022/06/18 14:39:37;;;;;;;3.58;1.08;;;;;;;;;;4973208;28;20046;-61
2022/06/18 14:42:12;;;;;;;2.67;1.23;;;;;;;;;;4960749;28;20086;-61
2022/06/18 14:44:59;;;;;;;4.82;0.80;;;;;;;;;;4973883;28;20054;-61
2022/06/18 14:47:37;;;;;;;4.22;1.02;;;;;;;;;;4973225;28;20046;-61
2022/06/18 14:50:22;;;;;;;5.63;1.17;;;;;;;;;;4972572;28;20133;-61
2022/06/18 14:53:09;;;;;;;4.90;1.10;;;;;;;;;;4978373;28;20062;-61
2022/06/18 14:55:41;;;;;;;5.53;1.15;;;;;;;;;;4993079;28;20077;-61
2022/06/18 14:58:30;;;;;;;3.25;1.10;;;;;;;;;;4992339;28;20054;-61
2022/06/18 15:00:56;;;;;;;2.28;0.77;;;;;;;;;;4992346;28;20501;-61
2022/06/18 15:03:25;;;;;;;4.03;0.98;;;;;;;;;;4992539;28;20475;-61
2022/06/18 15:05:55;;;;;;;3.17;1.10;;;;;;;;;;4992319;28;20733;-61